sensor_id;sensor_type;location;lat;lon;timestamp;temperature;humidity
6948;DHT22;3513;47.664;9.162;2023-07-13T00:01:48;19.20;99.90
6948;DHT22;3513;47.664;9.162;2023-07-13T00:04:16;19.10;99.90
6948;DHT22;3513;47.664;9.162;2023-07-13T00:06:43;19.00;99.90
6948;DHT22;3513;47.664;9.162;2023-07-13T00:09:14;18.90;99.90
6948;DHT22;3513;47.664;9.162;2023-07-13T00:11:40;18.90;99.90
6948;DHT22;3513;47.664;9.162;2023-07-13T00:14:07;18.90;99.90
6948;DHT22;3513;47.664;9.162;2023-07-13T00:16:35;19.00;99.90
6948;DHT22;3513;47.664;9.162;2023-07-13T00:19:01;19.30;99.90
6948;DHT22;3513;47.664;9.162;2023-07-13T00:21:27;19.40;99.90
6948;DHT22;3513;47.664;9.162;2023-07-13T00:23:52;19.30;99.90
6948;DHT22;3513;47.664;9.162;2023-07-13T00:26:18;19.20;99.90
6948;DHT22;3513;47.664;9.162;2023-07-13T00:28:44;19.20;99.90
6948;DHT22;3513;47.664;9.162;2023-07-13T00:31:11;19.20;99.90
6948;DHT22;3513;47.664;9.162;2023-07-13T00:33:37;19.10;99.90
6948;DHT22;3513;47.664;9.162;2023-07-13T00:36:03;19.10;99.90
6948;DHT22;3513;47.664;9.162;2023-07-13T00:38:29;19.00;99.90
6948;DHT22;3513;47.664;9.162;2023-07-13T00:40:55;19.10;99.90
6948;DHT22;3513;47.664;9.162;2023-07-13T00:43:22;19.20;99.90
6948;DHT22;3513;47.664;9.162;2023-07-13T00:48:17;19.20;99.90
6948;DHT22;3513;47.664;9.162;2023-07-13T00:50:44;19.30;99.90
6948;DHT22;3513;47.664;9.162;2023-07-13T00:53:11;19.30;99.90
6948;DHT22;3513;47.664;9.162;2023-07-13T00:55:38;19.30;99.90
6948;DHT22;3513;47.664;9.162;2023-07-13T00:58:05;19.30;99.90
6948;DHT22;3513;47.664;9.162;2023-07-13T01:00:34;19.30;99.90
6948;DHT22;3513;47.664;9.162;2023-07-13T01:03:00;19.20;99.90
6948;DHT22;3513;47.664;9.162;2023-07-13T01:05:30;19.20;99.90
6948;DHT22;3513;47.664;9.162;2023-07-13T01:07:58;19.20;99.90
6948;DHT22;3513;47.664;9.162;2023-07-13T01:10:25;19.10;99.90
6948;DHT22;3513;47.664;9.162;2023-07-13T01:12:51;19.20;99.90
6948;DHT22;3513;47.664;9.162;2023-07-13T01:15:42;19.20;99.90
6948;DHT22;3513;47.664;9.162;2023-07-13T01:18:15;19.20;99.90
6948;DHT22;3513;47.664;9.162;2023-07-13T01:20:51;19.10;99.90
6948;DHT22;3513;47.664;9.162;2023-07-13T01:23:17;19.20;99.90
6948;DHT22;3513;47.664;9.162;2023-07-13T01:25:44;19.30;99.90
6948;DHT22;3513;47.664;9.162;2023-07-13T01:28:10;19.40;99.90
6948;DHT22;3513;47.664;9.162;2023-07-13T01:30:36;19.40;99.90
6948;DHT22;3513;47.664;9.162;2023-07-13T01:33:03;19.40;99.90
6948;DHT22;3513;47.664;9.162;2023-07-13T01:35:29;19.40;99.90
6948;DHT22;3513;47.664;9.162;2023-07-13T01:37:55;19.30;99.90
6948;DHT22;3513;47.664;9.162;2023-07-13T01:40:22;19.10;99.90
6948;DHT22;3513;47.664;9.162;2023-07-13T01:42:48;19.00;99.90
6948;DHT22;3513;47.664;9.162;2023-07-13T01:45:13;18.90;99.90
6948;DHT22;3513;47.664;9.162;2023-07-13T01:47:40;18.90;99.90
6948;DHT22;3513;47.664;9.162;2023-07-13T01:50:05;18.90;99.90
6948;DHT22;3513;47.664;9.162;2023-07-13T01:52:31;18.80;99.90
6948;DHT22;3513;47.664;9.162;2023-07-13T01:54:56;18.80;99.90
6948;DHT22;3513;47.664;9.162;2023-07-13T01:57:22;18.90;99.90
6948;DHT22;3513;47.664;9.162;2023-07-13T01:59:47;18.90;99.90
6948;DHT22;3513;47.664;9.162;2023-07-13T02:02:13;18.90;99.90
6948;DHT22;3513;47.664;9.162;2023-07-13T02:04:39;19.00;99.90
6948;DHT22;3513;47.664;9.162;2023-07-13T02:07:04;19.00;99.90
6948;DHT22;3513;47.664;9.162;2023-07-13T02:09:30;19.00;99.90
6948;DHT22;3513;47.664;9.162;2023-07-13T02:11:56;18.90;99.90
6948;DHT22;3513;47.664;9.162;2023-07-13T02:14:22;18.90;99.90
6948;DHT22;3513;47.664;9.162;2023-07-13T02:16:47;18.90;99.90
6948;DHT22;3513;47.664;9.162;2023-07-13T02:19:14;18.80;99.90
6948;DHT22;3513;47.664;9.162;2023-07-13T02:21:39;18.70;99.90
6948;DHT22;3513;47.664;9.162;2023-07-13T02:24:05;18.70;99.90
6948;DHT22;3513;47.664;9.162;2023-07-13T02:26:30;18.70;99.90
6948;DHT22;3513;47.664;9.162;2023-07-13T02:28:56;18.60;99.90
6948;DHT22;3513;47.664;9.162;2023-07-13T02:31:21;18.50;99.90
6948;DHT22;3513;47.664;9.162;2023-07-13T02:33:47;18.40;99.90
6948;DHT22;3513;47.664;9.162;2023-07-13T02:36:13;18.40;99.90
6948;DHT22;3513;47.664;9.162;2023-07-13T02:38:42;18.50;99.90
6948;DHT22;3513;47.664;9.162;2023-07-13T02:41:08;18.60;99.90
6948;DHT22;3513;47.664;9.162;2023-07-13T02:43:35;18.50;99.90
6948;DHT22;3513;47.664;9.162;2023-07-13T02:46:01;18.50;99.90
6948;DHT22;3513;47.664;9.162;2023-07-13T02:48:35;18.50;99.90
6948;DHT22;3513;47.664;9.162;2023-07-13T02:51:01;18.50;99.90
6948;DHT22;3513;47.664;9.162;2023-07-13T02:53:27;18.50;99.90
6948;DHT22;3513;47.664;9.162;2023-07-13T02:55:53;18.50;99.90
6948;DHT22;3513;47.664;9.162;2023-07-13T02:58:19;18.60;99.90
6948;DHT22;3513;47.664;9.162;2023-07-13T03:00:45;18.60;99.90
6948;DHT22;3513;47.664;9.162;2023-07-13T03:03:12;18.50;99.90
6948;DHT22;3513;47.664;9.162;2023-07-13T03:05:42;18.60;99.90
6948;DHT22;3513;47.664;9.162;2023-07-13T03:08:09;18.60;99.90
6948;DHT22;3513;47.664;9.162;2023-07-13T03:10:35;18.70;99.90
6948;DHT22;3513;47.664;9.162;2023-07-13T03:13:01;18.70;99.90
6948;DHT22;3513;47.664;9.162;2023-07-13T03:15:26;18.70;99.90
6948;DHT22;3513;47.664;9.162;2023-07-13T03:17:52;18.80;99.90
6948;DHT22;3513;47.664;9.162;2023-07-13T03:20:18;18.70;99.90
6948;DHT22;3513;47.664;9.162;2023-07-13T03:22:44;18.80;99.90
6948;DHT22;3513;47.664;9.162;2023-07-13T03:25:09;18.80;99.90
6948;DHT22;3513;47.664;9.162;2023-07-13T03:27:36;18.80;99.90
6948;DHT22;3513;47.664;9.162;2023-07-13T03:30:03;18.80;99.90
6948;DHT22;3513;47.664;9.162;2023-07-13T03:32:28;18.90;99.90
6948;DHT22;3513;47.664;9.162;2023-07-13T03:34:54;19.00;99.90
6948;DHT22;3513;47.664;9.162;2023-07-13T03:37:20;19.00;99.90
6948;DHT22;3513;47.664;9.162;2023-07-13T03:39:46;19.00;99.90
6948;DHT22;3513;47.664;9.162;2023-07-13T03:42:12;19.00;99.90
6948;DHT22;3513;47.664;9.162;2023-07-13T03:44:39;18.90;99.90
6948;DHT22;3513;47.664;9.162;2023-07-13T03:47:05;18.90;99.90
6948;DHT22;3513;47.664;9.162;2023-07-13T03:49:31;18.90;99.90
6948;DHT22;3513;47.664;9.162;2023-07-13T03:51:57;18.90;99.90
6948;DHT22;3513;47.664;9.162;2023-07-13T03:54:22;18.90;99.90
6948;DHT22;3513;47.664;9.162;2023-07-13T03:56:48;18.90;99.90
6948;DHT22;3513;47.664;9.162;2023-07-13T03:59:13;18.90;99.90
6948;DHT22;3513;47.664;9.162;2023-07-13T04:01:39;18.90;99.90
6948;DHT22;3513;47.664;9.162;2023-07-13T04:04:05;18.80;99.90
6948;DHT22;3513;47.664;9.162;2023-07-13T04:06:32;18.90;99.90
6948;DHT22;3513;47.664;9.162;2023-07-13T04:09:00;19.00;99.90
6948;DHT22;3513;47.664;9.162;2023-07-13T04:11:29;19.10;99.90
6948;DHT22;3513;47.664;9.162;2023-07-13T04:13:55;19.10;99.90
6948;DHT22;3513;47.664;9.162;2023-07-13T04:16:21;19.20;99.90
6948;DHT22;3513;47.664;9.162;2023-07-13T04:18:48;19.10;99.90
6948;DHT22;3513;47.664;9.162;2023-07-13T04:21:14;19.10;99.90
6948;DHT22;3513;47.664;9.162;2023-07-13T04:23:40;19.00;99.90
6948;DHT22;3513;47.664;9.162;2023-07-13T04:26:07;19.00;99.90
6948;DHT22;3513;47.664;9.162;2023-07-13T04:28:33;19.10;99.90
6948;DHT22;3513;47.664;9.162;2023-07-13T04:30:59;19.10;99.90
6948;DHT22;3513;47.664;9.162;2023-07-13T04:33:25;19.10;99.90
6948;DHT22;3513;47.664;9.162;2023-07-13T04:35:52;19.10;99.90
6948;DHT22;3513;47.664;9.162;2023-07-13T04:38:29;19.00;99.90
6948;DHT22;3513;47.664;9.162;2023-07-13T04:40:58;19.00;99.90
6948;DHT22;3513;47.664;9.162;2023-07-13T04:43:24;19.00;99.90
6948;DHT22;3513;47.664;9.162;2023-07-13T04:45:51;18.90;99.90
6948;DHT22;3513;47.664;9.162;2023-07-13T04:48:17;18.90;99.90
6948;DHT22;3513;47.664;9.162;2023-07-13T04:50:43;18.90;99.90
6948;DHT22;3513;47.664;9.162;2023-07-13T04:53:09;19.00;99.90
6948;DHT22;3513;47.664;9.162;2023-07-13T04:55:36;19.00;99.90
6948;DHT22;3513;47.664;9.162;2023-07-13T04:58:02;19.00;99.90
6948;DHT22;3513;47.664;9.162;2023-07-13T05:00:29;19.00;99.90
6948;DHT22;3513;47.664;9.162;2023-07-13T05:02:56;19.00;99.90
6948;DHT22;3513;47.664;9.162;2023-07-13T05:05:23;19.10;99.90
6948;DHT22;3513;47.664;9.162;2023-07-13T05:07:48;19.00;99.90
6948;DHT22;3513;47.664;9.162;2023-07-13T05:10:14;19.00;99.90
6948;DHT22;3513;47.664;9.162;2023-07-13T05:12:39;19.00;99.90
6948;DHT22;3513;47.664;9.162;2023-07-13T05:15:06;19.10;99.90
6948;DHT22;3513;47.664;9.162;2023-07-13T05:17:31;19.10;99.90
6948;DHT22;3513;47.664;9.162;2023-07-13T05:19:57;19.10;99.90
6948;DHT22;3513;47.664;9.162;2023-07-13T05:22:22;19.20;99.90
6948;DHT22;3513;47.664;9.162;2023-07-13T05:24:48;19.10;99.90
6948;DHT22;3513;47.664;9.162;2023-07-13T05:27:14;19.00;99.90
6948;DHT22;3513;47.664;9.162;2023-07-13T05:29:39;19.20;99.90
6948;DHT22;3513;47.664;9.162;2023-07-13T05:32:05;19.00;99.90
6948;DHT22;3513;47.664;9.162;2023-07-13T05:34:31;19.20;99.90
6948;DHT22;3513;47.664;9.162;2023-07-13T05:36:56;19.20;99.90
6948;DHT22;3513;47.664;9.162;2023-07-13T05:39:22;19.20;99.90
6948;DHT22;3513;47.664;9.162;2023-07-13T05:41:48;19.20;99.90
6948;DHT22;3513;47.664;9.162;2023-07-13T05:44:14;19.20;99.90
6948;DHT22;3513;47.664;9.162;2023-07-13T05:46:39;19.30;99.90
6948;DHT22;3513;47.664;9.162;2023-07-13T05:49:05;19.30;99.90
6948;DHT22;3513;47.664;9.162;2023-07-13T05:51:30;19.30;99.90
6948;DHT22;3513;47.664;9.162;2023-07-13T05:53:56;19.40;99.90
6948;DHT22;3513;47.664;9.162;2023-07-13T05:56:21;19.40;99.90
6948;DHT22;3513;47.664;9.162;2023-07-13T05:58:48;19.50;99.90
6948;DHT22;3513;47.664;9.162;2023-07-13T06:01:15;19.50;99.90
6948;DHT22;3513;47.664;9.162;2023-07-13T06:03:41;19.60;99.90
6948;DHT22;3513;47.664;9.162;2023-07-13T06:06:08;19.60;99.90
6948;DHT22;3513;47.664;9.162;2023-07-13T06:08:34;19.50;99.90
6948;DHT22;3513;47.664;9.162;2023-07-13T06:11:05;19.50;99.90
6948;DHT22;3513;47.664;9.162;2023-07-13T06:13:30;19.50;99.90
6948;DHT22;3513;47.664;9.162;2023-07-13T06:15:56;19.50;99.90
6948;DHT22;3513;47.664;9.162;2023-07-13T06:18:22;19.40;99.90
6948;DHT22;3513;47.664;9.162;2023-07-13T06:20:47;19.40;99.90
6948;DHT22;3513;47.664;9.162;2023-07-13T06:23:13;19.30;99.90
6948;DHT22;3513;47.664;9.162;2023-07-13T06:25:40;19.20;99.90
6948;DHT22;3513;47.664;9.162;2023-07-13T06:28:05;19.20;99.90
6948;DHT22;3513;47.664;9.162;2023-07-13T06:30:31;19.20;99.90
6948;DHT22;3513;47.664;9.162;2023-07-13T06:32:57;19.20;99.90
6948;DHT22;3513;47.664;9.162;2023-07-13T06:35:22;19.10;99.90
6948;DHT22;3513;47.664;9.162;2023-07-13T06:37:48;19.10;99.90
6948;DHT22;3513;47.664;9.162;2023-07-13T06:40:14;19.00;99.90
6948;DHT22;3513;47.664;9.162;2023-07-13T06:42:39;18.90;99.90
6948;DHT22;3513;47.664;9.162;2023-07-13T06:45:05;18.90;99.90
6948;DHT22;3513;47.664;9.162;2023-07-13T06:47:31;18.90;99.90
6948;DHT22;3513;47.664;9.162;2023-07-13T06:49:57;19.00;99.90
6948;DHT22;3513;47.664;9.162;2023-07-13T06:52:23;19.00;99.90
6948;DHT22;3513;47.664;9.162;2023-07-13T06:54:48;18.90;99.90
6948;DHT22;3513;47.664;9.162;2023-07-13T06:57:14;18.90;99.90
6948;DHT22;3513;47.664;9.162;2023-07-13T06:59:39;18.80;99.90
6948;DHT22;3513;47.664;9.162;2023-07-13T07:02:05;18.80;99.90
6948;DHT22;3513;47.664;9.162;2023-07-13T07:04:31;18.60;99.90
6948;DHT22;3513;47.664;9.162;2023-07-13T07:06:56;18.40;99.90
6948;DHT22;3513;47.664;9.162;2023-07-13T07:09:22;18.40;99.90
6948;DHT22;3513;47.664;9.162;2023-07-13T07:11:48;18.20;99.90
6948;DHT22;3513;47.664;9.162;2023-07-13T07:14:13;18.20;99.90
6948;DHT22;3513;47.664;9.162;2023-07-13T07:16:39;18.10;99.90
6948;DHT22;3513;47.664;9.162;2023-07-13T07:19:04;18.20;99.90
6948;DHT22;3513;47.664;9.162;2023-07-13T07:21:30;18.10;99.90
6948;DHT22;3513;47.664;9.162;2023-07-13T07:23:56;18.10;99.90
6948;DHT22;3513;47.664;9.162;2023-07-13T07:26:22;18.10;99.90
6948;DHT22;3513;47.664;9.162;2023-07-13T07:28:48;18.00;99.90
6948;DHT22;3513;47.664;9.162;2023-07-13T07:31:13;18.00;99.90
6948;DHT22;3513;47.664;9.162;2023-07-13T07:33:39;18.00;99.90
6948;DHT22;3513;47.664;9.162;2023-07-13T07:36:05;18.00;99.90
6948;DHT22;3513;47.664;9.162;2023-07-13T07:38:30;18.10;99.90
6948;DHT22;3513;47.664;9.162;2023-07-13T07:40:56;18.10;99.90
6948;DHT22;3513;47.664;9.162;2023-07-13T07:43:21;18.20;99.90
6948;DHT22;3513;47.664;9.162;2023-07-13T07:45:47;18.20;99.90
6948;DHT22;3513;47.664;9.162;2023-07-13T07:48:13;18.30;99.90
6948;DHT22;3513;47.664;9.162;2023-07-13T07:50:38;18.40;99.90
6948;DHT22;3513;47.664;9.162;2023-07-13T07:53:06;18.50;99.90
6948;DHT22;3513;47.664;9.162;2023-07-13T07:55:34;18.70;99.90
6948;DHT22;3513;47.664;9.162;2023-07-13T07:58:00;18.80;99.90
6948;DHT22;3513;47.664;9.162;2023-07-13T08:00:26;18.90;99.90
6948;DHT22;3513;47.664;9.162;2023-07-13T08:02:53;19.00;99.90
6948;DHT22;3513;47.664;9.162;2023-07-13T08:05:19;19.00;99.90
6948;DHT22;3513;47.664;9.162;2023-07-13T08:07:44;18.90;99.90
6948;DHT22;3513;47.664;9.162;2023-07-13T08:10:10;18.90;99.90
6948;DHT22;3513;47.664;9.162;2023-07-13T08:12:37;19.00;99.90
6948;DHT22;3513;47.664;9.162;2023-07-13T08:15:03;19.10;99.90
6948;DHT22;3513;47.664;9.162;2023-07-13T08:17:29;19.20;99.90
6948;DHT22;3513;47.664;9.162;2023-07-13T08:19:55;19.30;99.90
6948;DHT22;3513;47.664;9.162;2023-07-13T08:22:21;19.30;99.90
6948;DHT22;3513;47.664;9.162;2023-07-13T08:24:46;19.30;99.90
6948;DHT22;3513;47.664;9.162;2023-07-13T08:27:13;19.40;99.90
6948;DHT22;3513;47.664;9.162;2023-07-13T08:29:39;19.40;99.90
6948;DHT22;3513;47.664;9.162;2023-07-13T08:32:06;19.50;99.90
6948;DHT22;3513;47.664;9.162;2023-07-13T08:34:35;19.40;99.40
6948;DHT22;3513;47.664;9.162;2023-07-13T08:37:01;19.60;99.90
6948;DHT22;3513;47.664;9.162;2023-07-13T08:39:26;19.90;99.50
6948;DHT22;3513;47.664;9.162;2023-07-13T08:42:01;20.00;99.00
6948;DHT22;3513;47.664;9.162;2023-07-13T08:47:11;20.10;99.20
6948;DHT22;3513;47.664;9.162;2023-07-13T08:49:39;20.20;99.90
6948;DHT22;3513;47.664;9.162;2023-07-13T08:52:35;20.40;98.50
6948;DHT22;3513;47.664;9.162;2023-07-13T08:55:15;20.50;98.30
6948;DHT22;3513;47.664;9.162;2023-07-13T08:57:42;20.50;97.80
6948;DHT22;3513;47.664;9.162;2023-07-13T09:00:11;20.60;98.30
6948;DHT22;3513;47.664;9.162;2023-07-13T09:02:58;20.80;97.40
6948;DHT22;3513;47.664;9.162;2023-07-13T09:05:29;20.90;96.90
6948;DHT22;3513;47.664;9.162;2023-07-13T09:13:40;21.50;94.30
6948;DHT22;3513;47.664;9.162;2023-07-13T09:16:09;21.80;94.60
6948;DHT22;3513;47.664;9.162;2023-07-13T09:18:44;22.00;91.40
6948;DHT22;3513;47.664;9.162;2023-07-13T09:21:16;22.30;91.40
6948;DHT22;3513;47.664;9.162;2023-07-13T09:23:42;22.50;92.10
6948;DHT22;3513;47.664;9.162;2023-07-13T09:26:16;22.70;91.60
6948;DHT22;3513;47.664;9.162;2023-07-13T09:28:50;22.80;86.00
6948;DHT22;3513;47.664;9.162;2023-07-13T09:31:33;22.70;87.60
6948;DHT22;3513;47.664;9.162;2023-07-13T09:34:02;22.60;84.10
6948;DHT22;3513;47.664;9.162;2023-07-13T09:36:32;22.50;85.50
6948;DHT22;3513;47.664;9.162;2023-07-13T09:39:33;22.50;84.40
6948;DHT22;3513;47.664;9.162;2023-07-13T09:42:07;22.40;81.70
6948;DHT22;3513;47.664;9.162;2023-07-13T09:44:44;22.40;87.20
6948;DHT22;3513;47.664;9.162;2023-07-13T09:47:23;22.50;84.70
6948;DHT22;3513;47.664;9.162;2023-07-13T09:50:10;22.50;85.60
6948;DHT22;3513;47.664;9.162;2023-07-13T09:52:43;22.70;87.00
6948;DHT22;3513;47.664;9.162;2023-07-13T09:55:39;22.90;89.80
6948;DHT22;3513;47.664;9.162;2023-07-13T09:58:18;23.10;89.50
6948;DHT22;3513;47.664;9.162;2023-07-13T10:00:56;23.20;89.70
6948;DHT22;3513;47.664;9.162;2023-07-13T10:03:26;23.30;89.70
6948;DHT22;3513;47.664;9.162;2023-07-13T10:05:52;23.20;88.60
6948;DHT22;3513;47.664;9.162;2023-07-13T10:08:27;23.10;87.60
6948;DHT22;3513;47.664;9.162;2023-07-13T10:11:14;23.10;87.80
6948;DHT22;3513;47.664;9.162;2023-07-13T10:13:55;22.90;86.90
6948;DHT22;3513;47.664;9.162;2023-07-13T10:16:24;22.90;86.80
6948;DHT22;3513;47.664;9.162;2023-07-13T10:18:55;22.90;87.00
6948;DHT22;3513;47.664;9.162;2023-07-13T10:21:26;22.90;87.60
6948;DHT22;3513;47.664;9.162;2023-07-13T10:23:56;23.00;85.40
6948;DHT22;3513;47.664;9.162;2023-07-13T10:26:31;23.10;85.80
6948;DHT22;3513;47.664;9.162;2023-07-13T10:29:03;23.30;84.50
6948;DHT22;3513;47.664;9.162;2023-07-13T10:31:31;23.50;85.00
6948;DHT22;3513;47.664;9.162;2023-07-13T10:33:57;23.70;83.00
6948;DHT22;3513;47.664;9.162;2023-07-13T10:36:41;23.80;81.30
6948;DHT22;3513;47.664;9.162;2023-07-13T10:39:17;23.90;80.80
6948;DHT22;3513;47.664;9.162;2023-07-13T10:41:46;24.10;80.40
6948;DHT22;3513;47.664;9.162;2023-07-13T10:44:29;24.10;79.60
6948;DHT22;3513;47.664;9.162;2023-07-13T10:49:29;24.20;79.10
6948;DHT22;3513;47.664;9.162;2023-07-13T10:51:56;24.30;78.90
6948;DHT22;3513;47.664;9.162;2023-07-13T10:54:28;24.50;78.90
6948;DHT22;3513;47.664;9.162;2023-07-13T10:57:17;24.60;80.70
6948;DHT22;3513;47.664;9.162;2023-07-13T10:59:47;24.80;79.40
6948;DHT22;3513;47.664;9.162;2023-07-13T11:02:22;24.90;78.70
6948;DHT22;3513;47.664;9.162;2023-07-13T11:04:48;25.00;77.40
6948;DHT22;3513;47.664;9.162;2023-07-13T11:07:27;25.00;76.40
6948;DHT22;3513;47.664;9.162;2023-07-13T11:10:04;25.00;76.40
6948;DHT22;3513;47.664;9.162;2023-07-13T11:13:03;24.90;77.30
6948;DHT22;3513;47.664;9.162;2023-07-13T11:15:38;24.80;76.60
6948;DHT22;3513;47.664;9.162;2023-07-13T11:18:20;24.80;77.00
6948;DHT22;3513;47.664;9.162;2023-07-13T11:20:48;24.80;76.40
6948;DHT22;3513;47.664;9.162;2023-07-13T11:23:18;24.80;76.10
6948;DHT22;3513;47.664;9.162;2023-07-13T11:25:44;24.80;76.20
6948;DHT22;3513;47.664;9.162;2023-07-13T11:30:39;25.10;75.30
6948;DHT22;3513;47.664;9.162;2023-07-13T11:33:19;25.10;75.30
6948;DHT22;3513;47.664;9.162;2023-07-13T11:36:49;25.10;75.50
6948;DHT22;3513;47.664;9.162;2023-07-13T11:38:55;25.20;74.40
6948;DHT22;3513;47.664;9.162;2023-07-13T11:41:31;25.30;73.00
6948;DHT22;3513;47.664;9.162;2023-07-13T11:44:16;25.40;73.30
6948;DHT22;3513;47.664;9.162;2023-07-13T11:46:47;25.50;74.40
6948;DHT22;3513;47.664;9.162;2023-07-13T11:49:17;25.70;73.70
6948;DHT22;3513;47.664;9.162;2023-07-13T11:51:44;25.80;74.20
6948;DHT22;3513;47.664;9.162;2023-07-13T11:54:31;25.90;73.20
6948;DHT22;3513;47.664;9.162;2023-07-13T11:57:06;26.00;73.20
6948;DHT22;3513;47.664;9.162;2023-07-13T11:59:33;26.00;70.90
6948;DHT22;3513;47.664;9.162;2023-07-13T12:02:16;26.00;71.80
6948;DHT22;3513;47.664;9.162;2023-07-13T12:04:43;25.90;71.60
6948;DHT22;3513;47.664;9.162;2023-07-13T12:07:18;25.90;72.30
6948;DHT22;3513;47.664;9.162;2023-07-13T12:09:44;25.80;72.10
6948;DHT22;3513;47.664;9.162;2023-07-13T12:12:12;25.70;72.70
6948;DHT22;3513;47.664;9.162;2023-07-13T12:14:38;25.90;73.70
6948;DHT22;3513;47.664;9.162;2023-07-13T12:17:19;26.20;71.50
6948;DHT22;3513;47.664;9.162;2023-07-13T12:19:45;26.50;71.50
6948;DHT22;3513;47.664;9.162;2023-07-13T12:22:13;26.60;70.00
6948;DHT22;3513;47.664;9.162;2023-07-13T12:24:40;26.70;69.90
6948;DHT22;3513;47.664;9.162;2023-07-13T12:27:23;26.80;69.10
6948;DHT22;3513;47.664;9.162;2023-07-13T12:29:59;26.80;68.20
6948;DHT22;3513;47.664;9.162;2023-07-13T12:32:26;26.70;69.10
6948;DHT22;3513;47.664;9.162;2023-07-13T12:35:03;27.00;68.90
6948;DHT22;3513;47.664;9.162;2023-07-13T12:37:34;27.10;67.90
6948;DHT22;3513;47.664;9.162;2023-07-13T12:40:00;27.30;66.60
6948;DHT22;3513;47.664;9.162;2023-07-13T12:42:28;27.30;65.10
6948;DHT22;3513;47.664;9.162;2023-07-13T12:47:42;27.00;66.20
6948;DHT22;3513;47.664;9.162;2023-07-13T12:50:20;27.00;69.30
6948;DHT22;3513;47.664;9.162;2023-07-13T12:52:51;27.30;69.60
6948;DHT22;3513;47.664;9.162;2023-07-13T12:55:20;27.60;66.10
6948;DHT22;3513;47.664;9.162;2023-07-13T12:57:58;27.80;67.20
6948;DHT22;3513;47.664;9.162;2023-07-13T13:03:00;27.80;66.60
6948;DHT22;3513;47.664;9.162;2023-07-13T13:05:29;27.80;65.60
6948;DHT22;3513;47.664;9.162;2023-07-13T13:07:55;27.80;67.20
6948;DHT22;3513;47.664;9.162;2023-07-13T13:10:20;28.20;66.40
6948;DHT22;3513;47.664;9.162;2023-07-13T13:12:47;28.60;64.60
6948;DHT22;3513;47.664;9.162;2023-07-13T13:15:13;29.00;63.30
6948;DHT22;3513;47.664;9.162;2023-07-13T13:17:39;29.30;61.60
6948;DHT22;3513;47.664;9.162;2023-07-13T13:20:18;29.60;60.60
6948;DHT22;3513;47.664;9.162;2023-07-13T13:22:44;30.00;60.40
6948;DHT22;3513;47.664;9.162;2023-07-13T13:25:13;30.20;59.10
6948;DHT22;3513;47.664;9.162;2023-07-13T13:27:41;30.20;58.60
6948;DHT22;3513;47.664;9.162;2023-07-13T13:30:15;30.50;58.70
6948;DHT22;3513;47.664;9.162;2023-07-13T13:32:43;30.80;57.10
6948;DHT22;3513;47.664;9.162;2023-07-13T13:35:14;31.10;57.00
6948;DHT22;3513;47.664;9.162;2023-07-13T13:37:40;31.40;55.90
6948;DHT22;3513;47.664;9.162;2023-07-13T13:40:21;31.50;55.50
6948;DHT22;3513;47.664;9.162;2023-07-13T13:42:51;31.40;55.30
6948;DHT22;3513;47.664;9.162;2023-07-13T13:45:18;31.30;54.10
6948;DHT22;3513;47.664;9.162;2023-07-13T13:47:46;31.30;54.90
6948;DHT22;3513;47.664;9.162;2023-07-13T13:50:16;31.40;55.00
6948;DHT22;3513;47.664;9.162;2023-07-13T13:52:42;31.50;55.20
6948;DHT22;3513;47.664;9.162;2023-07-13T13:55:14;31.80;54.30
6948;DHT22;3513;47.664;9.162;2023-07-13T13:57:39;32.00;53.60
6948;DHT22;3513;47.664;9.162;2023-07-13T14:00:05;32.30;52.80
6948;DHT22;3513;47.664;9.162;2023-07-13T14:02:31;32.60;52.70
6948;DHT22;3513;47.664;9.162;2023-07-13T14:04:59;32.90;50.80
6948;DHT22;3513;47.664;9.162;2023-07-13T14:07:26;33.20;50.50
6948;DHT22;3513;47.664;9.162;2023-07-13T14:09:59;33.30;51.10
6948;DHT22;3513;47.664;9.162;2023-07-13T14:12:27;33.40;50.60
6948;DHT22;3513;47.664;9.162;2023-07-13T14:14:54;33.60;51.10
6948;DHT22;3513;47.664;9.162;2023-07-13T14:17:22;33.80;48.90
6948;DHT22;3513;47.664;9.162;2023-07-13T14:19:53;33.80;49.20
6948;DHT22;3513;47.664;9.162;2023-07-13T14:22:23;33.90;49.30
6948;DHT22;3513;47.664;9.162;2023-07-13T14:24:51;33.80;48.80
6948;DHT22;3513;47.664;9.162;2023-07-13T14:27:16;33.80;49.20
6948;DHT22;3513;47.664;9.162;2023-07-13T14:29:42;34.00;48.00
6948;DHT22;3513;47.664;9.162;2023-07-13T14:32:11;33.90;48.30
6948;DHT22;3513;47.664;9.162;2023-07-13T14:34:38;33.90;48.10
6948;DHT22;3513;47.664;9.162;2023-07-13T14:37:04;34.00;48.40
6948;DHT22;3513;47.664;9.162;2023-07-13T14:39:31;34.20;47.50
6948;DHT22;3513;47.664;9.162;2023-07-13T14:41:57;34.00;46.70
6948;DHT22;3513;47.664;9.162;2023-07-13T14:44:30;33.70;47.40
6948;DHT22;3513;47.664;9.162;2023-07-13T14:46:57;33.30;48.20
6948;DHT22;3513;47.664;9.162;2023-07-13T14:51:56;32.50;50.30
6948;DHT22;3513;47.664;9.162;2023-07-13T14:54:23;32.70;50.40
6948;DHT22;3513;47.664;9.162;2023-07-13T14:56:49;33.00;49.40
6948;DHT22;3513;47.664;9.162;2023-07-13T14:59:14;33.30;49.10
6948;DHT22;3513;47.664;9.162;2023-07-13T15:01:40;33.40;48.50
6948;DHT22;3513;47.664;9.162;2023-07-13T15:04:06;33.40;48.00
6948;DHT22;3513;47.664;9.162;2023-07-13T15:06:58;33.30;48.80
6948;DHT22;3513;47.664;9.162;2023-07-13T15:09:25;33.50;48.80
6948;DHT22;3513;47.664;9.162;2023-07-13T15:11:52;33.70;48.30
6948;DHT22;3513;47.664;9.162;2023-07-13T15:14:18;33.90;48.20
6948;DHT22;3513;47.664;9.162;2023-07-13T15:16:46;34.20;47.70
6948;DHT22;3513;47.664;9.162;2023-07-13T15:19:12;34.60;47.10
6948;DHT22;3513;47.664;9.162;2023-07-13T15:21:37;35.00;46.60
6948;DHT22;3513;47.664;9.162;2023-07-13T15:24:03;35.30;45.90
6948;DHT22;3513;47.664;9.162;2023-07-13T15:26:29;35.50;45.80
6948;DHT22;3513;47.664;9.162;2023-07-13T15:28:55;35.70;45.30
6948;DHT22;3513;47.664;9.162;2023-07-13T15:31:23;35.70;44.60
6948;DHT22;3513;47.664;9.162;2023-07-13T15:33:51;35.80;44.70
6948;DHT22;3513;47.664;9.162;2023-07-13T15:36:18;35.90;43.20
6948;DHT22;3513;47.664;9.162;2023-07-13T15:38:44;35.90;43.90
6948;DHT22;3513;47.664;9.162;2023-07-13T15:43:41;36.50;43.20
6948;DHT22;3513;47.664;9.162;2023-07-13T15:46:07;36.90;42.90
6948;DHT22;3513;47.664;9.162;2023-07-13T15:48:32;37.20;41.90
6948;DHT22;3513;47.664;9.162;2023-07-13T15:51:02;37.60;41.80
6948;DHT22;3513;47.664;9.162;2023-07-13T15:53:33;37.90;41.00
6948;DHT22;3513;47.664;9.162;2023-07-13T15:56:00;38.20;39.30
6948;DHT22;3513;47.664;9.162;2023-07-13T15:58:27;38.40;39.50
6948;DHT22;3513;47.664;9.162;2023-07-13T16:00:53;38.70;38.60
6948;DHT22;3513;47.664;9.162;2023-07-13T16:03:20;38.90;38.20
6948;DHT22;3513;47.664;9.162;2023-07-13T16:05:46;39.20;37.90
6948;DHT22;3513;47.664;9.162;2023-07-13T16:08:27;39.50;36.70
6948;DHT22;3513;47.664;9.162;2023-07-13T16:10:56;39.50;35.30
6948;DHT22;3513;47.664;9.162;2023-07-13T16:13:22;39.00;35.20
6948;DHT22;3513;47.664;9.162;2023-07-13T16:15:50;38.60;34.30
6948;DHT22;3513;47.664;9.162;2023-07-13T16:18:16;38.30;31.30
6948;DHT22;3513;47.664;9.162;2023-07-13T16:20:45;38.30;33.30
6948;DHT22;3513;47.664;9.162;2023-07-13T16:23:13;38.10;30.80
6948;DHT22;3513;47.664;9.162;2023-07-13T16:25:40;37.40;31.20
6948;DHT22;3513;47.664;9.162;2023-07-13T16:28:06;36.70;32.80
6948;DHT22;3513;47.664;9.162;2023-07-13T16:30:32;36.40;33.80
6948;DHT22;3513;47.664;9.162;2023-07-13T16:33:00;36.40;32.90
6948;DHT22;3513;47.664;9.162;2023-07-13T16:35:38;36.20;33.00
6948;DHT22;3513;47.664;9.162;2023-07-13T16:38:13;35.90;33.90